Aérodrome :
LOGIN :

S'inscrire | Disclaimer

   EN    FR    IT 

 










Légende :    VFR   VFR Marginal   IFR   IFR Intensif   IFR Très Intensif
Visi : 
Plafond : 
>= 8 km
>= 3000ft
5 à 8 km
1000 à 3000 ft
1500m à 5 km
500 à 1000 ft
800 à 1500m
200 à 500 ft
< 800m
< 200 ft
Symboles :   Orages  Brouillard  Fortes neiges  Fortes précipitations  Vent > 20 kt
SIGMETs :   Divers  Orages  Givrage  Turbulence  Onde Orograph.  Cendres Volcan.






- Altitude de l'aérodrome : 13 ft
- Code IATA : LYX


EGMD - Lydd

DERNIER METAR :
  • 260820Z 32019KT CAVOK 10/04 Q1009

METARs EXPIRÉS :
  • 260750Z 31016KT CAVOK 09/04 Q1009
  • 260720Z 31015KT CAVOK 09/03 Q1008
  • 260650Z AUTO 31018KT 9999 FEW048/// 08/03 Q1008
  • 260620Z AUTO 31018KT 9999 OVC045/// 08/04 Q1008
  • 260550Z AUTO 31019KT 9999 FEW009/// BKN043/// 08/03 Q1008

TAF TAF EGMD
Valide du 26 à 06h jusqu'au 26 à 15h UTC


260501Z 2606/2615 30020G30KT 9999 SCT040
ATIS : +44 1797 322 422



MET'MAP, la Météo Aéronautique d'un coup d'oeil ! - Copyright ORBIFLY Décembre 2007 - Disclaimer

ORBIFLY MET'MAP TEAM :

Programmation & Développement : Alexandra Zaïnal
Sur une idée originale de : Baudouin d'Aumeries
Assistance à la programmation : Marc-Olivier Méhu
Soutien technique & logistique : Manuel Goepfert

Contact : metmap@orbifly.com




SOURCES & CREDITS :

   NOAA